METAR Data
IDs: Format: Raw Decoded Include TAF

Data at: 1214 UTC 15 Jul 2020

KSMS 151155Z AUTO 00000KT 5SM BR SCT110 25/25 A3008 RMK AO2
KSMS 151135Z AUTO 00000KT 3SM BR FEW110 25/25 A3007 RMK AO2
KSMS 151115Z AUTO 00000KT 4SM BR SCT110 24/24 A3007 RMK AO2
KSMS 151055Z AUTO 00000KT 4SM BR BKN110 24/24 A3006 RMK AO2
KSMS 151035Z AUTO 00000KT 3SM BR OVC100 24/24 A3006 RMK AO2
KSMS 151015Z AUTO 00000KT 6SM BR OVC100 24/24 A3005 RMK AO2
KSMS 150955Z AUTO 00000KT 4SM BR OVC100 24/24 A3004 RMK AO2
KSMS 150935Z AUTO 00000KT 6SM BR OVC100 24/24 A3004 RMK AO2
KSMS 150915Z AUTO 00000KT 7SM OVC100 24/24 A3003 RMK AO2
KSMS 150855Z AUTO 00000KT 2SM BR BKN110 23/23 A3003 RMK AO2
KSMS 150835Z AUTO 00000KT 1 1/2SM BR SCT100 23/23 A3003 RMK AO2
KSMS 150815Z AUTO 00000KT 3SM BR CLR 24/24 A3003 RMK AO2
KSMS 150755Z AUTO 00000KT 2 1/2SM BR CLR 24/23 A3003 RMK AO2
KSMS 150735Z AUTO 00000KT 3SM BR CLR 24/23 A3003 RMK AO2
KSMS 150715Z AUTO 00000KT 3SM BR CLR 24/24 A3003 RMK AO2
KSMS 150655Z AUTO 00000KT 6SM BR CLR 24/24 A3003 RMK AO2
KSMS 150635Z AUTO 00000KT 6SM BR CLR 24/24 A3003 RMK AO2
KSMS 150615Z AUTO 00000KT 6SM BR CLR 24/24 A3003 RMK AO2
KSMS 150555Z AUTO 00000KT 8SM CLR 25/24 A3004 RMK AO2
KSMS 150535Z AUTO 00000KT 6SM BR CLR 24/24 A3003 RMK AO2
KSMS 150515Z AUTO 00000KT 8SM FEW100 FEW120 25/24 A3004 RMK AO2
KSMS 150455Z AUTO 00000KT 9SM BKN100 25/25 A3005 RMK AO2
KSMS 150435Z AUTO 00000KT 8SM OVC100 25/25 A3005 RMK AO2
KSMS 150415Z AUTO 00000KT 10SM BKN100 25/24 A3005 RMK AO2
KSMS 150355Z AUTO 00000KT 10SM FEW100 26/25 A3005 RMK AO2
KSMS 150335Z AUTO 00000KT 10SM CLR 26/25 A3005 RMK AO2
KSMS 150315Z AUTO 00000KT 10SM CLR 27/25 A3004 RMK AO2
KSMS 150255Z AUTO 00000KT 10SM FEW100 26/25 A3004 RMK AO2
KSMS 150235Z AUTO 00000KT 10SM BKN100 26/25 A3004 RMK AO2
KSMS 150215Z AUTO 00000KT 10SM OVC100 26/25 A3002 RMK AO2
KSMS 150155Z AUTO 00000KT 10SM BKN100 26/25 A3002 RMK AO2
KSMS 150135Z AUTO 00000KT 10SM FEW100 27/25 A3002 RMK AO2
KSMS 150115Z AUTO 00000KT 10SM BKN100 27/25 A3001 RMK AO2
KSMS 150055Z AUTO 00000KT 10SM FEW100 27/25 A3001 RMK AO2
KSMS 150035Z AUTO 00000KT 10SM CLR 28/25 A3001 RMK AO2
KSMS 150015Z AUTO 00000KT 10SM CLR 29/25 A3000 RMK AO2
KSMS 142355Z AUTO 00000KT 10SM CLR 29/25 A3000 RMK AO2
KSMS 142335Z AUTO 00000KT 10SM FEW110 29/25 A2999 RMK AO2
KSMS 142315Z AUTO 00000KT 10SM FEW110 31/25 A2998 RMK AO2
KSMS 142255Z AUTO 00000KT 10SM CLR 32/24 A2998 RMK AO2
KSMS 142235Z AUTO 00000KT 10SM CLR 33/24 A2998 RMK AO2
KSMS 142215Z AUTO 00000KT 10SM CLR 34/23 A2997 RMK AO2
KSMS 142155Z AUTO 00000KT 10SM CLR 34/23 A2997 RMK AO2
KSMS 142135Z AUTO 00000KT 10SM FEW110 34/22 A2997 RMK AO2
KSMS 142115Z AUTO 00000KT 10SM FEW110 35/22 A2997 RMK AO2
KSMS 142055Z AUTO 00000KT 10SM CLR 34/23 A2997 RMK AO2
KSMS 142035Z AUTO 00000KT 10SM CLR 35/22 A2997 RMK AO2
KSMS 142015Z AUTO 00000KT 10SM CLR 35/23 A2997 RMK AO2
KSMS 141955Z AUTO 00000KT 10SM CLR 34/23 A2997 RMK AO2
KSMS 141935Z AUTO 00000KT 10SM CLR 34/23 A2997 RMK AO2
KSMS 141915Z AUTO 00000KT 9SM CLR 34/22 A2997 RMK AO2
KSMS 141855Z AUTO 00000KT 10SM CLR 34/23 A2998 RMK AO2
KSMS 141835Z AUTO 00000KT 10SM CLR 34/24 A2998 RMK AO2
KSMS 141815Z AUTO 00000KT 10SM CLR 33/24 A2999 RMK AO2
KSMS 141755Z AUTO 00000KT 10SM CLR 33/23 A2999 RMK AO2
KSMS 141735Z AUTO 00000KT 10SM FEW041 33/23 A3000 RMK AO2
KSMS 141715Z AUTO 00000KT 10SM CLR 33/23 A3000 RMK AO2
KSMS 141655Z AUTO 00000KT 10SM CLR 32/23 A3001 RMK AO2
KSMS 141635Z AUTO 00000KT 10SM CLR 32/23 A3000 RMK AO2
KSMS 141615Z AUTO 00000KT 10SM CLR 32/25 A3001 RMK AO2
KSMS 141555Z AUTO 00000KT 10SM CLR 32/24 A3001 RMK AO2
KSMS 141535Z AUTO 00000KT 10SM CLR 31/24 A3001 RMK AO2
KSMS 141515Z AUTO 00000KT 10SM CLR 31/24 A3001 RMK AO2
KSMS 141455Z AUTO 00000KT 10SM CLR 30/24 A3001 RMK AO2
KSMS 141435Z AUTO 00000KT 10SM CLR 29/23 A3001 RMK AO2
KSMS 141415Z AUTO 00000KT 10SM CLR 29/23 A3000 RMK AO2
KSMS 141355Z AUTO 00000KT 10SM CLR 28/23 A3001 RMK AO2
KSMS 141335Z AUTO 00000KT 10SM CLR 28/23 A3000 RMK AO2
KSMS 141315Z AUTO 00000KT CLR 27/22 A3000 RMK AO2
KSMS 141255Z AUTO 00000KT 10SM CLR 26/22 A2999 RMK AO2
KSMS 141235Z AUTO 00000KT 10SM CLR 26/22 A2999 RMK AO2
KSMS 141215Z AUTO 00000KT 9SM CLR 24/22 A2998 RMK AO2
KSMS 141155Z AUTO 00000KT 9SM CLR 24/22 A2998 RMK AO2
KSMS 141135Z AUTO 00000KT 8SM CLR 23/22 A2997 RMK AO2
KSMS 141115Z AUTO 00000KT 7SM CLR 22/22 A2996 RMK AO2
KSMS 141055Z AUTO 00000KT 7SM CLR 21/21 A2996 RMK AO2
KSMS 140955Z AUTO 00000KT 7SM CLR 21/21 A2994 RMK AO2
KSMS 140935Z AUTO 00000KT 8SM CLR 21/21 A2993 RMK AO2
KSMS 140915Z AUTO 00000KT 7SM CLR 21/21 A2993 RMK AO2
KSMS 140855Z AUTO 00000KT 9SM CLR 22/21 A2993 RMK AO2
KSMS 140835Z AUTO 00000KT 7SM CLR 22/21 A2992 RMK AO2
KSMS 140815Z AUTO 00000KT 8SM CLR 21/21 A2992 RMK AO2
KSMS 140755Z AUTO 00000KT 8SM CLR 21/21 A2991 RMK AO2
KSMS 140715Z AUTO 00000KT 10SM CLR 22/21 A2991 RMK AO2
KSMS 140655Z AUTO 00000KT 10SM CLR 22/21 A2991 RMK AO2
KSMS 140635Z AUTO 00000KT 9SM CLR 22/21 A2991 RMK AO2
KSMS 140615Z AUTO 00000KT 8SM CLR 22/21 A2992 RMK AO2
KSMS 140535Z AUTO 00000KT 10SM CLR 22/22 A2991 RMK AO2
KSMS 140515Z AUTO 00000KT 9SM CLR 22/21 A2992 RMK AO2
KSMS 140455Z AUTO 00000KT 10SM CLR 23/21 A2992 RMK AO2
KSMS 140435Z AUTO 00000KT 10SM CLR 23/21 A2991 RMK AO2
KSMS 140415Z AUTO 00000KT 10SM CLR 23/21 A2992 RMK AO2
KSMS 140355Z AUTO 00000KT 10SM CLR 23/21 A2992 RMK AO2
KSMS 140335Z AUTO 00000KT 10SM CLR 23/21 A2992 RMK AO2
KSMS 140315Z AUTO 00000KT 10SM CLR 23/21 A2991 RMK AO2
KSMS 140255Z AUTO 00000KT 10SM CLR 23/22 A2991 RMK AO2
KSMS 140235Z AUTO 00000KT 10SM CLR 24/22 A2991 RMK AO2
KSMS 140215Z AUTO 00000KT 10SM FEW095 24/22 A2992 RMK AO2
KSMS 140155Z AUTO 00000KT 10SM SCT090 SCT110 24/22 A2992 RMK AO2
KSMS 140135Z AUTO 00000KT 10SM BKN100 24/22 A2991 RMK AO2
KSMS 140115Z AUTO 00000KT 10SM BKN095 25/22 A2990 RMK AO2
KSMS 140055Z AUTO 00000KT 10SM FEW100 24/22 A2989 RMK AO2 LTG DSNT S
KSMS 140035Z AUTO 00000KT 10SM CLR 25/22 A2988 RMK AO2
KSMS 140015Z AUTO 00000KT 10SM CLR 27/22 A2987 RMK AO2